CheckWX is a tool to help pilots better visualize weather data.  It is not intended as a substitute for an official pre-flight weather briefing.

06:58:56 UTC

PHNY TAF
Lanai Airport
Lanai City, Hawaii, USA
PHNY 190539Z 1906/2006 04007KT P6SM BKN020 FM190800 04007KT P6SM SCT025 FM192000 04015G21KT P6SM SCT025 SCT035 FM200500 05009KT P6SM SCT025

Jun-19@
06:00 UTC

Jun-19 @ 06:00 UTC

Jun-19@
08:00 UTC

Jun-19 @ 08:00 UTC

PHNY 190539Z 1906/2006 04007KT P6SM BKN020
Wind
  • 040° at 7 KTS
Cloud Levels
  • Broken at 2,000' AGL

Jun-19@
08:00 UTC

Jun-19 @ 08:00 UTC

Jun-19@
20:00 UTC

Jun-19 @ 20:00 UTC

FM190800 04007KT P6SM SCT025

From

From Standard forecast or significant change

Wind
  • 040° at 7 KTS
Cloud Levels
  • Scattered at 2,500' AGL

Jun-19@
20:00 UTC

Jun-19 @ 20:00 UTC

Jun-20@
05:00 UTC

Jun-20 @ 05:00 UTC

FM192000 04015G21KT P6SM SCT025 SCT035

From

From Standard forecast or significant change

Wind
  • 040° at 15 KTS
  • {Gusting to 21 KTS
Cloud Levels
  • Scattered at 2,500' AGL
  • Scattered at 3,500' AGL

Jun-20@
05:00 UTC

Jun-20 @ 05:00 UTC

Jun-20@
06:00 UTC

Jun-20 @ 06:00 UTC

FM200500 05009KT P6SM SCT025

From

From Standard forecast or significant change

Wind
  • 050° at 9 KTS
Cloud Levels
  • Scattered at 2,500' AGL